Finnhawk — OJNL — position and weather

sailwx.info

Track history (hours):
 
Tides and Currents Weather Stations Pressure Air Temp Water Temp Dewpoint Dewpoint Depression Visibility Wind Speed Wind Dir Waves Ship Positions

Finnhawk

Last reported at 2015-Jul-27 04:16 UTC. Time now 2015-Jul-28 10:22 UTC.
Position N 59°51' E 024°57'.

Length 163 m; draft 5.7 m.

Type: Ship. MMSI: 230007000.

Date/timePositionNaut miles runAvg speedWind from/ knotsBaromVisibWave heightAir tempDewpointWater temp
2015-Jul-27 04:16N 59°51' E 024°57'1315.7
2015-Jul-27 03:26N 59°45' E 024°34'1516.8
2015-Jul-27 02:33N 59°41' E 024°05'1716.7
2015-Jul-27 01:33N 59°36' E 023°34'30916.3
2015-Jul-26 06:33N 55°02' E 019°10'1716.9
2015-Jul-26 05:33N 54°46' E 019°01'1616.5
2015-Jul-26 04:33N 54°32' E 018°47'9 8.9
2015-Jul-26 03:33N 54°32' E 018°32'0 0.0
2015-Jul-26 02:33N 54°32' E 018°32'0 0.0
2015-Jul-26 01:33N 54°32' E 018°32'0 0.0
2015-Jul-26 00:33N 54°32' E 018°32'0 0.0
2015-Jul-25 23:33N 54°32' E 018°32'0 0.0
2015-Jul-25 22:33N 54°32' E 018°32'0 0.0
2015-Jul-25 21:33N 54°32' E 018°32'0 0.5
2015-Jul-25 20:34N 54°32' E 018°32'1110.7
2015-Jul-25 19:34N 54°34' E 018°50'1615.8
2015-Jul-25 18:33N 54°48' E 019°02'1616.4
2015-Jul-25 17:33N 55°04' E 019°11'28116.5
2015-Jul-25 00:33N 59°25' E 022°22'2017.0
2015-Jul-24 23:21N 59°34' E 022°58'1316.8
2015-Jul-24 22:33N 59°38' E 023°23'2217.0
2015-Jul-24 21:16N 59°45' E 024°04'1317.0
2015-Jul-24 20:32N 59°49' E 024°28'2416.4
2015-Jul-24 19:04N 60°02' E 025°07'15 1.0
2015-Jul-24 03:29N 59°50' E 024°49'1918.1
2015-Jul-24 02:24N 59°42' E 024°14'1518.2
2015-Jul-24 01:33N 59°37' E 023°45'21317.5
2015-Jul-23 13:23N 56°38' E 020°08'1518.6
2015-Jul-23 12:33N 56°23' E 019°59'2418.6
2015-Jul-23 11:17N 56°01' E 019°45'1418.6
2015-Jul-23 10:33N 55°48' E 019°37'1918.5
2015-Jul-23 09:33N 55°30' E 019°26'2718.5
2015-Jul-23 08:07N 55°05' E 019°12'1018.5
2015-Jul-23 07:33N 54°55' E 019°06'1818.3
2015-Jul-23 06:34N 54°38' E 018°56'1414.3
2015-Jul-23 05:33N 54°32' E 018°33'1 0.9
2015-Jul-23 04:31N 54°32' E 018°32'0 0.0
2015-Jul-23 03:31N 54°32' E 018°32'0 0.0
2015-Jul-23 02:31N 54°32' E 018°32'0 0.0
2015-Jul-23 01:31N 54°32' E 018°32'0 0.0
2015-Jul-23 00:31N 54°32' E 018°32'0 0.0
2015-Jul-22 23:31N 54°32' E 018°32'0 0.0
2015-Jul-22 22:31N 54°32' E 018°32'0 0.0
2015-Jul-22 21:31N 54°32' E 018°32'0 0.4
2015-Jul-22 20:34N 54°32' E 018°32'1110.8
2015-Jul-22 19:33N 54°34' E 018°50'1716.5
2015-Jul-22 18:33N 54°49' E 019°03'1716.8
2015-Jul-22 17:34N 55°05' E 019°11'1717.1
2015-Jul-22 16:33N 55°21' E 019°21'28816.9
2015-Jul-21 23:31N 59°38' E 023°23'3618.2
2015-Jul-21 21:33N 59°50' E 024°30'1818.0
2015-Jul-21 20:32N 59°58' E 025°03'8 1.7
2015-Jul-21 16:04N 60°04' E 025°10'1515.5
2015-Jul-21 15:05N 59°57' E 025°38'917.4
2015-Jul-21 14:33N 59°58' E 025°56'1716.8
2015-Jul-21 13:33N 60°01' E 026°29'1817.4
2015-Jul-21 12:33N 59°60' E 027°04'3712.1
2015-Jul-21 09:30N 59°47' E 028°14'42 2.3
2015-Jul-20 15:33N 59°58' E 026°54'2019.2
2015-Jul-20 14:31N 59°57' E 026°14'45 3.5
2015-Jul-20 01:32N 59°48' E 024°45'1817.9
2015-Jul-20 00:33N 59°42' E 024°12'1818.1
2015-Jul-19 23:33N 59°37' E 023°38'30418.4
2015-Jul-19 07:06N 55°09' E 019°14'1019.2
2015-Jul-19 06:33N 54°59' E 019°09'1918.9
2015-Jul-19 05:33N 54°41' E 018°58'1515.3
2015-Jul-19 04:33N 54°32' E 018°37'3 0.8
2015-Jul-19 00:33N 54°32' E 018°32'0 0.0
2015-Jul-18 23:33N 54°32' E 018°32'0 0.0
2015-Jul-18 22:33N 54°32' E 018°32'0 0.0
2015-Jul-18 21:33N 54°32' E 018°32'1 1.1
2015-Jul-18 20:33N 54°32' E 018°33'1010.0
2015-Jul-18 19:33N 54°34' E 018°50'1615.9
2015-Jul-18 18:33N 54°48' E 019°02'1716.7
2015-Jul-18 17:33N 55°04' E 019°11'29816.4
2015-Jul-17 23:21N 59°34' E 023°05'1617.5
2015-Jul-17 22:26N 59°39' E 023°35'1617.4
2015-Jul-17 21:31N 59°46' E 024°04'1717.4
2015-Jul-17 20:33N 59°51' E 024°36'1916.8
2015-Jul-17 19:25N 60°02' E 025°07'  
Track history (hours):
 
Tides and Currents Weather Stations Pressure Air Temp Water Temp Dewpoint Dewpoint Depression Visibility Wind Speed Wind Dir Waves Ship Positions

Finnhawk

Last reported at 2015-Jul-27 04:16 UTC. Time now 2015-Jul-28 10:22 UTC.
Position N 59°51' E 024°57'.

Length 163 m; draft 5.7 m.

Type: Ship. MMSI: 230007000.

Date/timePositionNaut miles runAvg speedWind from/ knotsBaromVisibWave heightAir tempDewpointWater temp
2015-Jul-27 04:16N 59°51' E 024°57'1315.7
2015-Jul-27 03:26N 59°45' E 024°34'1516.8
2015-Jul-27 02:33N 59°41' E 024°05'1716.7
2015-Jul-27 01:33N 59°36' E 023°34'30916.3
2015-Jul-26 06:33N 55°02' E 019°10'1716.9
2015-Jul-26 05:33N 54°46' E 019°01'1616.5
2015-Jul-26 04:33N 54°32' E 018°47'9 8.9
2015-Jul-26 03:33N 54°32' E 018°32'0 0.0
2015-Jul-26 02:33N 54°32' E 018°32'0 0.0
2015-Jul-26 01:33N 54°32' E 018°32'0 0.0
2015-Jul-26 00:33N 54°32' E 018°32'0 0.0
2015-Jul-25 23:33N 54°32' E 018°32'0 0.0
2015-Jul-25 22:33N 54°32' E 018°32'0 0.0
2015-Jul-25 21:33N 54°32' E 018°32'0 0.5
2015-Jul-25 20:34N 54°32' E 018°32'1110.7
2015-Jul-25 19:34N 54°34' E 018°50'1615.8
2015-Jul-25 18:33N 54°48' E 019°02'1616.4
2015-Jul-25 17:33N 55°04' E 019°11'28116.5
2015-Jul-25 00:33N 59°25' E 022°22'2017.0
2015-Jul-24 23:21N 59°34' E 022°58'1316.8
2015-Jul-24 22:33N 59°38' E 023°23'2217.0
2015-Jul-24 21:16N 59°45' E 024°04'1317.0
2015-Jul-24 20:32N 59°49' E 024°28'2416.4
2015-Jul-24 19:04N 60°02' E 025°07'15 1.0
2015-Jul-24 03:29N 59°50' E 024°49'1918.1
2015-Jul-24 02:24N 59°42' E 024°14'1518.2
2015-Jul-24 01:33N 59°37' E 023°45'21317.5
2015-Jul-23 13:23N 56°38' E 020°08'1518.6
2015-Jul-23 12:33N 56°23' E 019°59'2418.6
2015-Jul-23 11:17N 56°01' E 019°45'1418.6
2015-Jul-23 10:33N 55°48' E 019°37'1918.5
2015-Jul-23 09:33N 55°30' E 019°26'2718.5
2015-Jul-23 08:07N 55°05' E 019°12'1018.5
2015-Jul-23 07:33N 54°55' E 019°06'1818.3
2015-Jul-23 06:34N 54°38' E 018°56'1414.3
2015-Jul-23 05:33N 54°32' E 018°33'1 0.9
2015-Jul-23 04:31N 54°32' E 018°32'0 0.0
2015-Jul-23 03:31N 54°32' E 018°32'0 0.0
2015-Jul-23 02:31N 54°32' E 018°32'0 0.0
2015-Jul-23 01:31N 54°32' E 018°32'0 0.0
2015-Jul-23 00:31N 54°32' E 018°32'0 0.0
2015-Jul-22 23:31N 54°32' E 018°32'0 0.0
2015-Jul-22 22:31N 54°32' E 018°32'0 0.0
2015-Jul-22 21:31N 54°32' E 018°32'0 0.4
2015-Jul-22 20:34N 54°32' E 018°32'1110.8
2015-Jul-22 19:33N 54°34' E 018°50'1716.5
2015-Jul-22 18:33N 54°49' E 019°03'1716.8
2015-Jul-22 17:34N 55°05' E 019°11'1717.1
2015-Jul-22 16:33N 55°21' E 019°21'28816.9
2015-Jul-21 23:31N 59°38' E 023°23'3618.2
2015-Jul-21 21:33N 59°50' E 024°30'1818.0
2015-Jul-21 20:32N 59°58' E 025°03'8 1.7
2015-Jul-21 16:04N 60°04' E 025°10'1515.5
2015-Jul-21 15:05N 59°57' E 025°38'917.4
2015-Jul-21 14:33N 59°58' E 025°56'1716.8
2015-Jul-21 13:33N 60°01' E 026°29'1817.4
2015-Jul-21 12:33N 59°60' E 027°04'3712.1
2015-Jul-21 09:30N 59°47' E 028°14'42 2.3
2015-Jul-20 15:33N 59°58' E 026°54'2019.2
2015-Jul-20 14:31N 59°57' E 026°14'45 3.5
2015-Jul-20 01:32N 59°48' E 024°45'1817.9
2015-Jul-20 00:33N 59°42' E 024°12'1818.1
2015-Jul-19 23:33N 59°37' E 023°38'30418.4
2015-Jul-19 07:06N 55°09' E 019°14'1019.2
2015-Jul-19 06:33N 54°59' E 019°09'1918.9
2015-Jul-19 05:33N 54°41' E 018°58'1515.3
2015-Jul-19 04:33N 54°32' E 018°37'3 0.8
2015-Jul-19 00:33N 54°32' E 018°32'0 0.0
2015-Jul-18 23:33N 54°32' E 018°32'0 0.0
2015-Jul-18 22:33N 54°32' E 018°32'0 0.0
2015-Jul-18 21:33N 54°32' E 018°32'1 1.1
2015-Jul-18 20:33N 54°32' E 018°33'1010.0
2015-Jul-18 19:33N 54°34' E 018°50'1615.9
2015-Jul-18 18:33N 54°48' E 019°02'1716.7
2015-Jul-18 17:33N 55°04' E 019°11'29816.4
2015-Jul-17 23:21N 59°34' E 023°05'1617.5
2015-Jul-17 22:26N 59°39' E 023°35'1617.4
2015-Jul-17 21:31N 59°46' E 024°04'1717.4
2015-Jul-17 20:33N 59°51' E 024°36'1916.8
2015-Jul-17 19:25N 60°02' E 025°07'  

Dump ship's entire track history